Time;durP1;ratioP1;P1;durP2;ratioP2;P2;SDS_P1;SDS_P2;PMS_P1;PMS_P2;Temp;Humidity;BMP_temperature;BMP_pressure;BME280_temperature;BME280_humidity;BME280_pressure;Samples;Min_cycle;Max_cycle;Signal;HPM_P1;HPM_P2
2021/04/12 00:00:27;;;;;;;6.93;4.63;;;23.60;35.10;;;;;;6200604;28;80236;-67
2021/04/12 00:03:27;;;;;;;11.15;5.40;;;23.60;35.00;;;;;;6186373;28;81467;-67
2021/04/12 00:06:28;;;;;;;7.90;5.18;;;23.60;35.30;;;;;;6194146;28;80603;-67
2021/04/12 00:09:28;;;;;;;8.13;5.00;;;23.60;35.00;;;;;;6218615;28;80753;-67
2021/04/12 00:12:29;;;;;;;8.95;5.70;;;23.60;35.20;;;;;;6205865;27;80659;-68
2021/04/12 00:15:29;;;;;;;9.45;5.25;;;23.60;35.00;;;;;;6201290;28;80516;-67
2021/04/12 00:18:30;;;;;;;7.10;4.70;;;23.60;35.60;;;;;;6199133;28;81197;-67
2021/04/12 00:21:30;;;;;;;7.55;5.53;;;23.60;35.40;;;;;;6201809;28;80738;-67
2021/04/12 00:24:31;;;;;;;8.02;5.65;;;23.60;35.20;;;;;;6200073;28;81459;-67
2021/04/12 00:27:31;;;;;;;9.77;5.55;;;23.60;35.60;;;;;;6194846;28;80649;-67
2021/04/12 00:30:32;;;;;;;10.43;5.38;;;23.60;35.00;;;;;;6186465;28;80361;-67
2021/04/12 00:33:33;;;;;;;7.95;5.38;;;23.60;35.40;;;;;;6197171;27;80479;-68
2021/04/12 00:36:34;;;;;;;8.88;5.70;;;23.60;35.40;;;;;;6205335;27;82966;-67
2021/04/12 00:39:36;;;;;;;7.93;5.60;;;23.60;35.40;;;;;;6209104;27;81786;-67
2021/04/12 00:42:37;;;;;;;10.00;5.97;;;23.60;35.10;;;;;;6198222;28;80907;-67
2021/04/12 00:45:37;;;;;;;9.98;6.57;;;23.60;35.20;;;;;;6197683;27;83189;-67
2021/04/12 00:48:38;;;;;;;10.07;5.90;;;23.60;35.20;;;;;;6202666;28;81560;-67
2021/04/12 00:51:39;;;;;;;9.25;5.65;;;23.60;34.90;;;;;;6206179;28;81317;-66
2021/04/12 00:54:39;;;;;;;12.85;6.72;;;23.60;35.30;;;;;;6218690;28;83746;-66
2021/04/12 00:57:40;;;;;;;11.82;6.38;;;23.60;34.50;;;;;;6177777;28;82884;-66
2021/04/12 01:00:41;;;;;;;9.45;6.03;;;23.60;35.00;;;;;;6207837;28;81977;-66
2021/04/12 01:03:42;;;;;;;9.07;5.63;;;23.60;34.70;;;;;;6199304;28;80261;-66
2021/04/12 01:06:44;;;;;;;10.10;6.00;;;23.60;34.60;;;;;;6198401;28;81420;-65
2021/04/12 01:09:44;;;;;;;10.68;6.28;;;23.60;34.50;;;;;;6217871;27;81702;-67
2021/04/12 01:12:45;;;;;;;11.18;6.45;;;23.50;34.40;;;;;;6213505;27;81976;-66
2021/04/12 01:15:45;;;;;;;9.32;5.35;;;23.50;34.50;;;;;;6237932;28;81445;-67
2021/04/12 01:18:46;;;;;;;8.52;5.60;;;23.50;34.50;;;;;;6209248;28;80953;-67
2021/04/12 01:21:47;;;;;;;10.35;6.32;;;23.50;34.50;;;;;;6200439;28;81254;-68
2021/04/12 01:24:47;;;;;;;11.43;7.05;;;23.60;34.60;;;;;;6201255;28;84090;-68
2021/04/12 01:27:47;;;;;;;10.45;6.30;;;23.50;34.60;;;;;;6185897;28;80704;-67
2021/04/12 01:30:48;;;;;;;11.90;6.80;;;23.50;34.40;;;;;;6197136;28;80649;-67
2021/04/12 01:33:49;;;;;;;10.10;6.05;;;23.50;34.10;;;;;;6198626;28;83281;-66
2021/04/12 01:36:49;;;;;;;10.88;6.45;;;23.50;34.70;;;;;;6194470;28;83045;-66
2021/04/12 01:39:50;;;;;;;9.90;5.93;;;23.50;34.40;;;;;;6186784;28;82856;-67
2021/04/12 01:42:50;;;;;;;11.98;6.90;;;23.50;35.00;;;;;;6203949;28;81300;-66
2021/04/12 01:45:51;;;;;;;11.25;6.13;;;23.50;34.50;;;;;;6193896;28;80893;-67
2021/04/12 01:48:52;;;;;;;8.18;5.55;;;23.50;34.50;;;;;;6212341;28;80627;-67
2021/04/12 01:51:52;;;;;;;10.45;6.18;;;23.50;34.20;;;;;;6196437;27;81730;-66
2021/04/12 01:54:53;;;;;;;10.23;6.32;;;23.50;34.20;;;;;;6191301;27;83489;-65
2021/04/12 01:57:53;;;;;;;12.40;6.60;;;23.50;34.10;;;;;;6192812;27;80963;-66
2021/04/12 02:00:54;;;;;;;12.30;7.18;;;23.50;34.10;;;;;;6196009;28;83405;-66
2021/04/12 02:03:54;;;;;;;9.50;6.05;;;23.50;34.00;;;;;;6202592;28;80319;-66
2021/04/12 02:06:55;;;;;;;12.15;6.25;;;23.50;34.10;;;;;;6206909;28;80479;-67
2021/04/12 02:09:55;;;;;;;11.73;6.55;;;23.50;34.00;;;;;;6198888;28;81533;-67
2021/04/12 02:12:56;;;;;;;11.75;6.97;;;23.50;34.00;;;;;;6193725;28;80671;-66
2021/04/12 02:15:56;;;;;;;8.60;5.65;;;23.50;34.10;;;;;;6189480;28;81576;-67
2021/04/12 02:18:57;;;;;;;12.60;6.57;;;23.50;33.90;;;;;;6202847;28;83149;-66
2021/04/12 02:21:57;;;;;;;11.30;6.95;;;23.50;33.90;;;;;;6205221;28;81584;-67
2021/04/12 02:24:58;;;;;;;10.70;5.95;;;23.50;33.30;;;;;;6216731;27;83490;-66
2021/04/12 02:27:59;;;;;;;9.40;5.85;;;23.50;33.60;;;;;;6202194;28;81606;-67
2021/04/12 02:30:59;;;;;;;14.18;7.30;;;23.50;33.50;;;;;;6201223;27;81573;-67
2021/04/12 02:34:00;;;;;;;10.32;6.20;;;23.50;34.00;;;;;;6203578;28;83032;-67
2021/04/12 02:37:00;;;;;;;7.82;5.90;;;23.50;33.80;;;;;;6200955;28;81537;-67
2021/04/12 02:40:01;;;;;;;8.98;6.13;;;23.40;33.10;;;;;;6202038;27;80701;-68
2021/04/12 02:43:02;;;;;;;9.88;6.10;;;23.50;34.10;;;;;;6201170;28;81075;-66
2021/04/12 02:46:03;;;;;;;8.90;5.65;;;23.50;33.60;;;;;;6225122;27;80760;-68
2021/04/12 02:49:03;;;;;;;10.70;6.05;;;23.50;33.50;;;;;;6223947;28;80900;-67
2021/04/12 02:52:04;;;;;;;8.30;6.00;;;23.40;33.60;;;;;;6204615;28;81848;-67
2021/04/12 02:55:04;;;;;;;10.98;5.80;;;23.50;33.60;;;;;;6195042;28;80975;-67
2021/04/12 02:58:05;;;;;;;10.05;5.88;;;23.50;33.70;;;;;;6197972;28;80624;-67
2021/04/12 03:01:05;;;;;;;10.70;5.40;;;23.50;33.70;;;;;;6190741;28;80523;-68
2021/04/12 03:04:06;;;;;;;8.63;5.95;;;23.50;34.30;;;;;;6209117;28;81140;-67
2021/04/12 03:07:06;;;;;;;9.05;5.55;;;23.50;33.60;;;;;;6226006;27;80319;-67
2021/04/12 03:10:08;;;;;;;9.15;5.22;;;23.50;33.40;;;;;;6224440;28;90592;-68
2021/04/12 03:13:08;;;;;;;11.02;6.00;;;23.50;33.30;;;;;;6214756;28;80591;-67
2021/04/12 03:16:09;;;;;;;9.00;5.65;;;23.50;33.40;;;;;;6209781;28;80391;-67
2021/04/12 03:19:09;;;;;;;10.00;5.60;;;23.50;33.90;;;;;;6220312;27;80574;-67
2021/04/12 03:22:10;;;;;;;10.45;5.47;;;23.50;33.50;;;;;;6220182;28;83114;-67
2021/04/12 03:25:10;;;;;;;8.75;6.00;;;23.40;33.30;;;;;;6210456;27;80994;-68
2021/04/12 03:28:11;;;;;;;8.98;5.50;;;23.50;32.90;;;;;;6203043;28;81886;-67
2021/04/12 03:31:13;;;;;;;9.63;5.45;;;23.50;33.10;;;;;;6216403;28;80294;-68
2021/04/12 03:34:14;;;;;;;10.20;5.90;;;23.50;32.50;;;;;;6222612;28;80425;-69
2021/04/12 03:37:14;;;;;;;8.85;5.85;;;23.50;32.30;;;;;;6215188;28;80599;-68
2021/04/12 03:40:15;;;;;;;8.13;5.53;;;23.50;32.50;;;;;;6197969;28;81811;-68
2021/04/12 03:43:16;;;;;;;9.07;5.70;;;23.50;32.60;;;;;;6203516;28;80821;-68
2021/04/12 03:46:16;;;;;;;7.75;5.57;;;23.50;32.60;;;;;;6201292;28;80361;-68
2021/04/12 03:49:17;;;;;;;12.50;5.80;;;23.50;32.70;;;;;;6197636;28;80822;-67
2021/04/12 03:52:17;;;;;;;8.13;5.57;;;23.50;32.60;;;;;;6199340;28;86503;-67
2021/04/12 03:55:18;;;;;;;7.30;5.10;;;23.50;32.70;;;;;;6198127;28;81210;-65
2021/04/12 03:58:18;;;;;;;6.63;5.03;;;23.50;32.60;;;;;;6205703;28;80712;-65
2021/04/12 04:01:19;;;;;;;7.88;5.55;;;23.50;32.60;;;;;;6197391;28;80560;-67
2021/04/12 04:04:19;;;;;;;8.60;5.50;;;23.50;32.70;;;;;;6199086;28;80906;-67
2021/04/12 04:07:20;;;;;;;9.93;6.10;;;23.50;32.70;;;;;;6196441;28;80611;-67
2021/04/12 04:10:20;;;;;;;9.02;6.18;;;23.60;32.70;;;;;;6200155;28;81114;-67
2021/04/12 04:13:21;;;;;;;8.25;5.30;;;23.60;32.80;;;;;;6203739;28;80673;-68
2021/04/12 04:16:21;;;;;;;8.02;5.50;;;23.50;32.80;;;;;;6213452;27;80975;-67
2021/04/12 04:19:22;;;;;;;6.57;4.72;;;23.50;32.90;;;;;;6216847;28;82339;-67
2021/04/12 04:22:22;;;;;;;9.15;4.70;;;23.50;33.00;;;;;;6197187;28;82203;-67
2021/04/12 04:25:23;;;;;;;8.40;5.40;;;23.50;33.00;;;;;;6192960;28;80457;-68
2021/04/12 04:28:24;;;;;;;9.02;5.60;;;23.50;33.10;;;;;;6192215;28;81132;-68
2021/04/12 04:31:27;;;;;;;12.45;5.53;;;23.60;33.20;;;;;;6208912;28;80458;-68
2021/04/12 04:34:28;;;;;;;8.95;5.05;;;23.60;33.30;;;;;;6219240;28;81226;-68
2021/04/12 04:37:30;;;;;;;7.55;5.45;;;23.60;33.90;;;;;;6213606;28;80946;-67
2021/04/12 04:40:30;;;;;;;13.05;5.43;;;23.60;33.60;;;;;;6199007;28;80402;-67
2021/04/12 04:43:31;;;;;;;7.43;4.20;;;23.60;33.70;;;;;;6193070;28;80593;-68
2021/04/12 04:46:31;;;;;;;9.75;5.10;;;23.60;34.10;;;;;;6202526;28;83292;-68
2021/04/12 04:49:32;;;;;;;10.15;5.50;;;23.60;34.80;;;;;;6208567;27;81201;-68
2021/04/12 04:52:32;;;;;;;11.18;5.88;;;23.70;34.30;;;;;;6209211;28;89966;-68
2021/04/12 04:55:33;;;;;;;6.40;4.50;;;23.70;34.40;;;;;;6210274;28;81553;-68
2021/04/12 04:58:34;;;;;;;9.10;5.47;;;23.60;34.50;;;;;;6198693;28;80819;-69
2021/04/12 05:01:34;;;;;;;10.07;5.18;;;23.70;34.80;;;;;;6198956;28;80904;-69
2021/04/12 05:04:35;;;;;;;8.57;5.03;;;23.70;34.40;;;;;;6191977;27;80459;-68
2021/04/12 05:07:35;;;;;;;8.48;5.35;;;23.70;34.40;;;;;;6206813;28;80775;-69
2021/04/12 05:10:36;;;;;;;20.52;5.47;;;23.70;35.10;;;;;;6216200;28;81578;-68
2021/04/12 05:13:36;;;;;;;7.47;4.95;;;23.80;34.60;;;;;;6209343;27;81554;-69
2021/04/12 05:16:37;;;;;;;9.15;5.28;;;23.80;35.50;;;;;;6207494;28;80691;-71
2021/04/12 05:19:38;;;;;;;10.18;4.93;;;23.80;36.00;;;;;;6202408;28;81494;-68
2021/04/12 05:22:40;;;;;;;9.20;4.90;;;23.80;34.50;;;;;;6189390;28;81149;-66
2021/04/12 05:25:40;;;;;;;10.85;5.00;;;23.70;34.80;;;;;;6197265;28;81507;-67
2021/04/12 05:28:41;;;;;;;6.10;4.38;;;23.70;34.80;;;;;;6201777;27;81413;-68
2021/04/12 05:31:41;;;;;;;10.25;5.20;;;23.70;35.20;;;;;;6236843;28;80767;-67
2021/04/12 05:34:43;;;;;;;8.25;4.97;;;23.80;35.70;;;;;;6217057;28;81452;-67
2021/04/12 05:37:44;;;;;;;6.22;4.60;;;23.80;36.20;;;;;;6221407;27;83297;-67
2021/04/12 05:40:44;;;;;;;11.63;5.07;;;23.80;36.50;;;;;;6218979;28;80763;-67
2021/04/12 05:43:45;;;;;;;7.72;4.75;;;23.80;36.70;;;;;;6215738;28;80798;-66
2021/04/12 05:46:45;;;;;;;9.98;5.65;;;23.80;37.00;;;;;;6213005;28;83176;-67
2021/04/12 05:49:46;;;;;;;9.77;5.53;;;23.80;36.70;;;;;;6210185;28;80813;-67
2021/04/12 05:52:46;;;;;;;8.60;5.43;;;23.90;36.90;;;;;;6199912;28;81513;-68
2021/04/12 05:55:47;;;;;;;6.72;4.40;;;23.80;36.70;;;;;;6211378;28;81846;-68
2021/04/12 05:58:47;;;;;;;12.07;5.03;;;23.80;36.90;;;;;;6225771;27;82423;-68
2021/04/12 06:01:48;;;;;;;12.00;6.03;;;23.90;36.90;;;;;;6204145;27;81042;-68
2021/04/12 06:04:49;;;;;;;9.15;5.70;;;23.80;37.30;;;;;;6199883;28;80787;-69
2021/04/12 06:07:49;;;;;;;15.32;6.30;;;23.80;37.60;;;;;;6201485;28;80581;-67
2021/04/12 06:10:50;;;;;;;8.10;4.85;;;23.80;37.60;;;;;;6188268;28;80905;-67
2021/04/12 06:13:51;;;;;;;8.63;4.97;;;23.90;37.80;;;;;;6197399;28;80409;-66
2021/04/12 06:16:52;;;;;;;10.43;5.88;;;23.90;37.80;;;;;;6201449;28;81577;-67
2021/04/12 06:19:52;;;;;;;9.77;5.53;;;23.90;37.70;;;;;;6202646;28;80922;-66
2021/04/12 06:22:53;;;;;;;9.15;6.18;;;23.90;37.60;;;;;;6206766;28;80946;-67
2021/04/12 06:25:53;;;;;;;9.85;5.43;;;23.90;37.60;;;;;;6203304;27;83715;-67
2021/04/12 06:28:54;;;;;;;10.07;5.68;;;24.00;37.40;;;;;;6214210;28;81465;-65
2021/04/12 06:31:54;;;;;;;7.78;4.80;;;24.00;37.40;;;;;;6208780;28;82003;-66
2021/04/12 06:34:55;;;;;;;16.13;6.30;;;24.00;37.90;;;;;;6213445;27;82041;-65
2021/04/12 06:37:56;;;;;;;10.23;5.70;;;24.00;37.70;;;;;;6198367;28;83476;-65
2021/04/12 06:40:56;;;;;;;14.65;5.53;;;24.00;37.70;;;;;;6193894;28;82616;-67
2021/04/12 06:43:57;;;;;;;8.77;5.10;;;24.00;38.40;;;;;;6195408;28;83080;-66
2021/04/12 06:46:57;;;;;;;11.13;5.80;;;24.00;37.50;;;;;;6207620;28;81047;-65
2021/04/12 06:49:58;;;;;;;14.30;6.75;;;24.00;37.80;;;;;;6215004;27;81786;-65
2021/04/12 06:52:58;;;;;;;17.95;7.38;;;24.00;36.40;;;;;;6203863;28;81069;-66
2021/04/12 06:55:59;;;;;;;14.55;7.10;;;23.90;36.60;;;;;;6220549;27;81435;-67
2021/04/12 06:58:59;;;;;;;13.27;7.40;;;23.90;36.30;;;;;;6213948;27;80452;-67
2021/04/12 07:02:01;;;;;;;12.68;7.35;;;24.00;37.10;;;;;;6219460;28;82375;-67
2021/04/12 07:05:02;;;;;;;11.30;6.63;;;24.00;37.40;;;;;;6209219;28;81979;-66
2021/04/12 07:08:03;;;;;;;15.93;7.05;;;23.90;37.40;;;;;;6202978;28;81246;-68
2021/04/12 07:11:03;;;;;;;15.95;7.15;;;24.00;37.90;;;;;;6207062;27;80657;-67
2021/04/12 07:14:04;;;;;;;21.65;7.45;;;24.00;39.10;;;;;;6194672;28;81742;-67
2021/04/12 07:17:04;;;;;;;15.85;6.80;;;24.00;41.40;;;;;;6193177;28;80782;-67
2021/04/12 07:20:05;;;;;;;16.58;6.75;;;24.00;43.70;;;;;;6192971;28;81975;-67
2021/04/12 07:23:05;;;;;;;17.60;6.07;;;24.00;43.90;;;;;;6202339;27;83282;-67
2021/04/12 07:26:06;;;;;;;14.10;5.63;;;24.00;42.20;;;;;;6193409;27;80795;-65
2021/04/12 07:29:07;;;;;;;11.05;5.80;;;24.00;40.90;;;;;;6193715;28;81517;-66
2021/04/12 07:32:08;;;;;;;9.50;5.43;;;24.00;38.00;;;;;;6208390;28;80670;-66
2021/04/12 07:35:09;;;;;;;9.00;4.25;;;23.90;37.10;;;;;;6205527;28;82609;-65
2021/04/12 07:38:09;;;;;;;8.27;3.42;;;23.90;36.90;;;;;;6198029;27;80923;-65
2021/04/12 07:41:10;;;;;;;8.23;3.63;;;23.90;36.20;;;;;;6196514;28;80566;-66
2021/04/12 07:44:10;;;;;;;6.95;3.85;;;23.90;35.80;;;;;;6199667;28;80622;-66
2021/04/12 07:47:11;;;;;;;5.38;3.00;;;23.90;35.30;;;;;;6202312;28;81722;-66
2021/04/12 07:50:11;;;;;;;6.90;3.58;;;23.80;35.80;;;;;;6202254;28;81147;-65
2021/04/12 07:53:12;;;;;;;8.00;3.38;;;23.90;38.60;;;;;;6200735;28;81523;-65
2021/04/12 07:56:12;;;;;;;7.82;4.13;;;23.90;38.30;;;;;;6197925;28;80744;-65
2021/04/12 07:59:13;;;;;;;7.53;3.65;;;23.90;40.00;;;;;;6200994;27;80507;-66
2021/04/12 08:02:13;;;;;;;7.45;3.70;;;24.00;40.60;;;;;;6199881;28;90668;-65
2021/04/12 08:05:14;;;;;;;9.88;3.65;;;24.00;38.70;;;;;;6198787;28;81452;-64
2021/04/12 08:08:15;;;;;;;8.05;3.78;;;23.90;38.30;;;;;;6196555;28;80505;-65
2021/04/12 08:11:15;;;;;;;9.07;3.60;;;24.00;37.90;;;;;;6200531;28;80971;-66
2021/04/12 08:14:16;;;;;;;6.15;3.97;;;24.00;37.60;;;;;;6217725;28;80735;-66
2021/04/12 08:17:16;;;;;;;8.95;3.85;;;24.00;37.60;;;;;;6207031;27;80667;-66
2021/04/12 08:20:17;;;;;;;7.38;4.65;;;24.00;37.30;;;;;;6187893;28;80616;-67
2021/04/12 08:23:18;;;;;;;8.93;4.22;;;24.00;37.10;;;;;;6188504;28;80477;-66
2021/04/12 08:26:19;;;;;;;10.00;4.63;;;23.90;36.90;;;;;;6211023;28;81066;-66
2021/04/12 08:29:19;;;;;;;7.78;3.88;;;24.00;38.10;;;;;;6217751;28;81929;-68
2021/04/12 08:32:20;;;;;;;6.30;4.10;;;24.00;37.60;;;;;;6209335;28;80939;-67
2021/04/12 08:35:20;;;;;;;9.25;3.58;;;24.00;37.80;;;;;;6197827;28;80865;-68
2021/04/12 08:38:21;;;;;;;8.07;3.55;;;24.00;36.90;;;;;;6196432;28;81592;-68
2021/04/12 08:41:24;;;;;;;5.90;3.45;;;23.90;36.80;;;;;;6216689;28;83091;-68
2021/04/12 08:44:25;;;;;;;9.00;4.32;;;23.90;37.00;;;;;;6196859;28;81315;-64
2021/04/12 08:47:25;;;;;;;7.25;4.07;;;23.90;37.00;;;;;;6200903;28;80600;-64
2021/04/12 08:50:26;;;;;;;9.82;3.38;;;23.90;36.40;;;;;;6196857;28;81021;-67
2021/04/12 08:53:27;;;;;;;10.63;3.72;;;23.90;37.20;;;;;;6212438;28;80901;-67
2021/04/12 08:56:27;;;;;;;7.88;4.20;;;23.90;36.60;;;;;;6202530;28;81187;-67
2021/04/12 08:59:28;;;;;;;5.30;3.78;;;23.90;36.90;;;;;;6209727;28;81596;-67
2021/04/12 09:02:29;;;;;;;6.65;3.55;;;23.90;36.20;;;;;;6209541;27;82419;-67
2021/04/12 09:05:31;;;;;;;8.40;3.80;;;23.90;37.10;;;;;;6187905;28;80701;-67
2021/04/12 09:08:32;;;;;;;8.30;3.83;;;23.90;36.50;;;;;;6194588;28;81083;-67
2021/04/12 09:11:33;;;;;;;6.70;3.75;;;23.90;35.70;;;;;;6200499;28;80323;-66
2021/04/12 09:14:36;;;;;;;6.20;3.42;;;23.90;36.30;;;;;;6199522;28;80986;-67
2021/04/12 09:17:36;;;;;;;5.75;3.65;;;23.90;36.40;;;;;;6190271;28;80987;-66
2021/04/12 09:20:37;;;;;;;7.72;3.30;;;23.80;36.00;;;;;;6201193;27;81013;-66
2021/04/12 09:23:37;;;;;;;7.63;3.63;;;23.90;35.60;;;;;;6212295;28;81048;-67
2021/04/12 09:26:38;;;;;;;7.80;4.10;;;23.80;34.70;;;;;;6217823;28;80660;-69
2021/04/12 09:29:39;;;;;;;9.38;3.67;;;23.80;34.50;;;;;;6203233;27;82606;-64
2021/04/12 09:32:39;;;;;;;6.53;3.72;;;23.80;35.00;;;;;;6214877;28;80530;-66
2021/04/12 09:35:40;;;;;;;7.88;3.33;;;23.80;35.90;;;;;;6205128;28;80340;-67
2021/04/12 09:38:40;;;;;;;7.28;3.33;;;23.80;35.70;;;;;;6193037;28;80594;-67
2021/04/12 09:41:41;;;;;;;7.25;3.38;;;23.80;34.90;;;;;;6189379;28;80752;-66
2021/04/12 09:44:42;;;;;;;5.70;3.17;;;23.80;34.70;;;;;;6199316;28;81671;-67
2021/04/12 09:47:42;;;;;;;8.65;4.13;;;23.80;34.80;;;;;;6184647;28;80651;-68
2021/04/12 09:50:43;;;;;;;7.93;3.28;;;23.80;35.00;;;;;;6193142;28;80802;-66
2021/04/12 09:53:44;;;;;;;5.63;3.75;;;23.90;34.80;;;;;;6194123;27;81012;-67
2021/04/12 09:56:44;;;;;;;9.10;3.20;;;23.80;35.10;;;;;;6217327;28;80842;-68
2021/04/12 09:59:45;;;;;;;7.03;3.92;;;23.80;35.50;;;;;;6200048;27;80860;-68
2021/04/12 10:02:49;;;;;;;6.95;3.72;;;23.80;36.10;;;;;;6188044;28;80546;-68
2021/04/12 10:05:49;;;;;;;7.05;3.45;;;23.80;35.60;;;;;;6181892;28;80798;-67
2021/04/12 10:08:50;;;;;;;9.50;4.05;;;23.80;35.40;;;;;;6192598;28;81009;-68
2021/04/12 10:11:51;;;;;;;10.50;3.40;;;23.80;34.90;;;;;;6226931;28;81024;-68
2021/04/12 10:14:51;;;;;;;10.75;3.88;;;23.80;35.00;;;;;;6211786;28;82677;-67
2021/04/12 10:17:52;;;;;;;7.22;3.50;;;23.80;34.70;;;;;;6207188;27;81174;-68
2021/04/12 10:20:53;;;;;;;8.25;3.50;;;23.70;34.60;;;;;;6196188;28;81134;-67
2021/04/12 10:23:53;;;;;;;5.72;3.85;;;23.80;34.50;;;;;;6198153;28;81923;-67
2021/04/12 10:26:56;;;;;;;8.65;3.70;;;23.70;34.80;;;;;;6183652;27;80468;-67
2021/04/12 10:29:57;;;;;;;9.60;4.22;;;23.70;35.00;;;;;;6187717;28;81564;-67
2021/04/12 10:32:57;;;;;;;13.10;4.03;;;23.70;35.30;;;;;;6190639;28;80471;-67
2021/04/12 10:35:58;;;;;;;5.95;4.13;;;23.70;35.70;;;;;;6203625;28;80691;-66
2021/04/12 10:38:59;;;;;;;9.07;4.07;;;23.70;35.70;;;;;;6219658;28;80551;-66
2021/04/12 10:41:59;;;;;;;7.68;3.88;;;23.70;35.90;;;;;;6203976;28;80601;-67
2021/04/12 10:45:00;;;;;;;12.02;4.97;;;23.70;35.90;;;;;;6209394;28;80724;-66
2021/04/12 10:48:00;;;;;;;11.55;4.05;;;23.70;35.90;;;;;;6223319;27;81021;-65
2021/04/12 10:51:01;;;;;;;13.18;4.63;;;23.70;36.10;;;;;;6215973;28;81853;-67
2021/04/12 10:54:02;;;;;;;11.77;4.80;;;23.70;36.10;;;;;;6209877;28;81951;-70
2021/04/12 10:57:05;;;;;;;11.77;4.78;;;23.70;36.00;;;;;;6199685;28;80340;-67
2021/04/12 11:00:08;;;;;;;14.00;5.05;;;23.60;35.90;;;;;;6202601;27;80524;-66
2021/04/12 11:03:09;;;;;;;17.48;5.03;;;23.60;35.80;;;;;;6198356;28;80950;-67
2021/04/12 11:06:10;;;;;;;9.98;4.43;;;23.60;35.60;;;;;;6198987;27;80577;-67
2021/04/12 11:09:10;;;;;;;10.95;4.75;;;23.60;35.50;;;;;;6194614;28;80983;-68
2021/04/12 11:12:11;;;;;;;14.30;5.95;;;23.60;35.40;;;;;;6196215;27;81708;-67
2021/04/12 11:15:12;;;;;;;27.90;15.40;;;23.60;35.30;;;;;;6210862;28;81114;-67
2021/04/12 11:18:12;;;;;;;35.58;18.48;;;23.60;36.10;;;;;;6196026;28;83796;-67
2021/04/12 11:21:13;;;;;;;34.00;17.63;;;23.70;36.40;;;;;;6197383;28;83559;-67
2021/04/12 11:24:14;;;;;;;29.75;16.27;;;23.70;36.00;;;;;;6197776;27;84343;-67
2021/04/12 11:27:15;;;;;;;32.50;16.17;;;23.70;35.70;;;;;;6197259;28;85498;-66
2021/04/12 11:30:15;;;;;;;30.27;16.55;;;23.70;36.20;;;;;;6188073;27;83880;-67
2021/04/12 11:33:16;;;;;;;26.92;14.43;;;23.80;36.50;;;;;;6185574;28;84651;-66
2021/04/12 11:36:17;;;;;;;29.08;14.60;;;23.80;36.10;;;;;;6207522;28;83466;-69
2021/04/12 11:39:17;;;;;;;25.67;13.82;;;23.90;36.50;;;;;;6195819;27;83569;-67
2021/04/12 11:42:18;;;;;;;24.67;12.70;;;23.90;36.50;;;;;;6205878;28;84252;-67
2021/04/12 11:45:18;;;;;;;23.83;11.38;;;23.90;36.40;;;;;;6183421;28;83749;-68
2021/04/12 11:48:19;;;;;;;18.88;9.02;;;23.90;36.70;;;;;;6192759;28;85901;-66
2021/04/12 11:51:19;;;;;;;17.55;9.35;;;23.90;35.80;;;;;;6199495;28;83479;-67
2021/04/12 11:54:20;;;;;;;14.93;8.98;;;23.90;36.80;;;;;;6190510;28;81585;-66
2021/04/12 11:57:20;;;;;;;20.00;9.00;;;23.90;36.30;;;;;;6202170;28;83638;-67
2021/04/12 12:00:21;;;;;;;21.30;6.95;;;23.90;37.00;;;;;;6222560;28;83959;-67
2021/04/12 12:03:21;;;;;;;14.75;8.18;;;23.90;36.30;;;;;;6199238;28;81094;-69
2021/04/12 12:06:22;;;;;;;13.52;8.13;;;23.90;36.50;;;;;;6213877;28;81470;-68
2021/04/12 12:09:25;;;;;;;15.02;7.45;;;23.90;36.70;;;;;;6220425;28;80466;-67
2021/04/12 12:12:26;;;;;;;11.07;6.63;;;23.90;36.40;;;;;;6199922;28;80805;-66
2021/04/12 12:15:29;;;;;;;14.98;6.28;;;24.00;36.80;;;;;;6201459;27;80759;-66
2021/04/12 12:18:30;;;;;;;12.07;6.53;;;24.00;36.30;;;;;;6194016;28;80949;-65
2021/04/12 12:21:30;;;;;;;9.77;5.85;;;24.00;36.20;;;;;;6217870;28;81331;-65
2021/04/12 12:24:34;;;;;;;10.18;6.10;;;24.00;36.10;;;;;;6214202;28;80413;-64
2021/04/12 12:27:35;;;;;;;12.88;5.80;;;23.90;35.70;;;;;;6196831;27;80675;-69
2021/04/12 12:30:38;;;;;;;9.20;4.47;;;23.90;35.20;;;;;;6191568;28;81201;-71
2021/04/12 12:33:39;;;;;;;8.38;4.72;;;23.90;35.90;;;;;;6214569;28;80310;-65
2021/04/12 12:36:40;;;;;;;8.68;4.85;;;24.00;35.80;;;;;;6208009;28;81040;-66
2021/04/12 12:39:43;;;;;;;11.05;4.80;;;24.00;35.50;;;;;;6200305;28;81234;-67
2021/04/12 12:42:46;;;;;;;9.73;4.13;;;23.90;35.50;;;;;;6200017;28;80845;-68
2021/04/12 12:45:46;;;;;;;8.38;4.25;;;23.90;35.20;;;;;;6207904;28;81086;-68
2021/04/12 12:48:47;;;;;;;5.70;3.97;;;23.90;34.90;;;;;;6197858;28;80923;-67
2021/04/12 12:51:48;;;;;;;9.80;4.32;;;23.90;34.80;;;;;;6195650;28;80604;-67
2021/04/12 12:54:51;;;;;;;7.15;4.30;;;23.90;34.80;;;;;;6221291;28;80544;-69
2021/04/12 12:57:52;;;;;;;6.78;3.83;;;23.90;35.20;;;;;;6198844;27;80586;-69
2021/04/12 13:00:56;;;;;;;9.25;3.97;;;23.90;35.20;;;;;;6191955;28;81288;-68
2021/04/12 13:03:56;;;;;;;7.35;4.18;;;23.90;34.90;;;;;;6196544;28;81155;-66
2021/04/12 13:06:57;;;;;;;7.50;4.10;;;23.90;35.40;;;;;;6193202;28;81047;-66
2021/04/12 13:10:07;;;;;;;7.78;4.05;;;23.90;35.40;;;;;;6199642;27;80954;-67
2021/04/12 13:13:07;;;;;;;7.20;4.45;;;23.90;35.40;;;;;;6183533;28;84697;-66
2021/04/12 13:16:08;;;;;;;6.82;3.65;;;23.90;35.30;;;;;;6192985;28;80916;-67
2021/04/12 13:19:09;;;;;;;9.25;4.03;;;23.90;35.10;;;;;;6221638;28;80213;-68
2021/04/12 13:22:09;;;;;;;8.35;4.00;;;23.90;35.40;;;;;;6195300;28;80212;-68
2021/04/12 13:25:10;;;;;;;11.27;4.07;;;23.90;35.50;;;;;;6194553;28;83225;-67
2021/04/12 13:28:13;;;;;;;9.93;4.70;;;23.90;35.10;;;;;;6213403;28;80825;-67
2021/04/12 13:31:13;;;;;;;5.63;4.07;;;23.90;34.90;;;;;;6187185;28;80383;-68
2021/04/12 13:34:14;;;;;;;11.30;4.10;;;23.80;34.80;;;;;;6199400;28;80481;-67
2021/04/12 13:37:15;;;;;;;6.30;4.30;;;23.90;35.60;;;;;;6212897;28;88383;-66
2021/04/12 13:40:18;;;;;;;8.23;3.90;;;23.90;35.40;;;;;;6212571;28;81287;-68
2021/04/12 13:43:19;;;;;;;9.00;4.10;;;23.90;34.40;;;;;;6207617;28;81136;-67
2021/04/12 13:46:19;;;;;;;5.60;3.97;;;23.80;34.50;;;;;;6205960;28;81391;-67
2021/04/12 13:49:22;;;;;;;8.32;4.43;;;23.80;34.60;;;;;;6191035;28;80787;-67
2021/04/12 13:52:23;;;;;;;6.78;4.22;;;23.80;34.70;;;;;;6199342;28;80914;-67
2021/04/12 13:55:24;;;;;;;7.90;4.18;;;23.80;34.90;;;;;;6193745;28;80702;-68
2021/04/12 13:58:24;;;;;;;8.68;4.75;;;23.80;34.50;;;;;;6212479;27;80757;-68
2021/04/12 14:01:25;;;;;;;10.55;5.13;;;23.90;35.00;;;;;;6196154;28;80509;-66
2021/04/12 14:04:29;;;;;;;8.40;4.35;;;23.90;34.80;;;;;;6225974;28;81055;-67
2021/04/12 14:07:29;;;;;;;8.40;4.40;;;23.90;34.50;;;;;;6216030;28;80699;-67
2021/04/12 14:10:30;;;;;;;8.75;4.45;;;23.90;34.60;;;;;;6222701;28;80875;-68
2021/04/12 14:13:31;;;;;;;10.68;4.57;;;23.90;34.50;;;;;;6210980;28;80856;-66
2021/04/12 14:16:31;;;;;;;8.93;4.53;;;23.90;35.00;;;;;;6202669;28;80849;-66
2021/04/12 14:19:39;;;;;;;8.93;3.92;;;23.90;35.00;;;;;;6198613;28;80488;-66
2021/04/12 14:22:40;;;;;;;9.10;3.95;;;23.90;34.50;;;;;;6200100;28;81415;-66
2021/04/12 14:25:40;;;;;;;6.82;3.53;;;23.80;35.10;;;;;;6197318;28;80873;-66
2021/04/12 14:28:41;;;;;;;7.55;3.58;;;23.90;35.70;;;;;;6198243;28;80936;-66
2021/04/12 14:31:41;;;;;;;10.00;3.92;;;23.90;35.20;;;;;;6201965;28;80829;-66
2021/04/12 14:34:42;;;;;;;8.20;3.80;;;23.90;34.50;;;;;;6203993;28;80901;-66
2021/04/12 14:37:43;;;;;;;5.63;3.75;;;23.80;35.10;;;;;;6207485;28;80682;-66
2021/04/12 14:40:43;;;;;;;6.85;4.40;;;23.90;34.80;;;;;;6216830;28;80360;-65
2021/04/12 14:43:44;;;;;;;10.25;5.07;;;23.90;34.60;;;;;;6194412;28;81039;-66
2021/04/12 14:46:45;;;;;;;10.85;4.55;;;23.80;34.80;;;;;;6200682;28;82058;-65
2021/04/12 14:49:46;;;;;;;8.38;4.25;;;23.90;35.60;;;;;;6204613;28;81045;-66
2021/04/12 14:52:46;;;;;;;9.18;3.88;;;23.80;34.80;;;;;;6224079;28;80574;-67
2021/04/12 14:55:53;;;;;;;10.23;3.97;;;23.90;34.60;;;;;;6223019;28;80750;-67
2021/04/12 14:58:56;;;;;;;8.73;4.32;;;23.90;35.10;;;;;;6204994;28;81144;-64
2021/04/12 15:01:57;;;;;;;10.30;4.30;;;23.80;35.00;;;;;;6202126;28;82432;-65
2021/04/12 15:04:58;;;;;;;6.90;4.05;;;23.80;34.50;;;;;;6222104;28;80714;-67
2021/04/12 15:07:58;;;;;;;8.15;4.53;;;23.80;34.80;;;;;;6223843;27;81328;-66
2021/04/12 15:10:59;;;;;;;8.13;4.00;;;23.80;35.10;;;;;;6210949;27;80688;-65
2021/04/12 15:13:59;;;;;;;7.60;4.60;;;23.80;35.10;;;;;;6194701;28;80726;-67
2021/04/12 15:17:01;;;;;;;10.65;5.00;;;23.80;35.10;;;;;;6198307;28;80715;-67
2021/04/12 15:20:02;;;;;;;6.80;4.05;;;23.80;35.00;;;;;;6207162;28;80997;-67
2021/04/12 15:23:03;;;;;;;9.98;4.38;;;23.80;34.90;;;;;;6214863;27;80831;-68
2021/04/12 15:26:06;;;;;;;6.50;4.35;;;23.80;34.90;;;;;;6206991;28;80585;-68
2021/04/12 15:29:09;;;;;;;7.33;4.37;;;23.80;35.10;;;;;;6203291;28;81773;-68
2021/04/12 15:32:10;;;;;;;5.75;3.60;;;23.80;35.20;;;;;;6197019;27;81545;-68
2021/04/12 15:35:10;;;;;;;8.20;3.97;;;23.80;35.30;;;;;;6209827;28;80443;-67